Time;durP1;ratioP1;P1;durP2;ratioP2;P2;SDS_P1;SDS_P2;PMS_P1;PMS_P2;Temp;Humidity;BMP_temperature;BMP_pressure;BME280_temperature;BME280_humidity;BME280_pressure;Samples;Min_cycle;Max_cycle;Signal;HPM_P1;HPM_P2
2020/12/09 00:00:00;;;;;;;27.47;21.47;;;6.70;41.70;;;;;;5073117;28;20394;-66
2020/12/09 00:02:25;;;;;;;27.70;22.47;;;6.80;41.20;;;;;;5072839;28;20440;-66
2020/12/09 00:04:51;;;;;;;25.03;21.23;;;6.80;41.20;;;;;;5072732;28;20178;-68
2020/12/09 00:07:16;;;;;;;28.03;21.63;;;6.60;41.40;;;;;;5072550;28;20181;-66
2020/12/09 00:09:42;;;;;;;26.23;21.17;;;6.40;42.20;;;;;;5072629;28;20235;-67
2020/12/09 00:12:07;;;;;;;23.40;19.53;;;6.50;42.40;;;;;;5072369;28;20579;-67
2020/12/09 00:14:33;;;;;;;25.53;21.57;;;6.60;41.80;;;;;;5072577;28;20174;-67
2020/12/09 00:16:58;;;;;;;27.13;22.00;;;6.60;41.60;;;;;;5072406;28;20170;-66
2020/12/09 00:19:24;;;;;;;30.53;22.87;;;6.60;41.70;;;;;;5072450;28;20673;-66
2020/12/09 00:21:49;;;;;;;26.27;21.90;;;6.60;42.70;;;;;;5072222;28;20543;-66
2020/12/09 00:24:15;;;;;;;26.47;21.87;;;6.70;41.90;;;;;;5072061;28;20191;-67
2020/12/09 00:26:41;;;;;;;24.67;20.20;;;6.80;41.50;;;;;;5072066;28;20176;-66
2020/12/09 00:29:07;;;;;;;31.27;23.63;;;6.80;41.00;;;;;;5072001;28;20191;-68
2020/12/09 00:31:33;;;;;;;29.57;21.73;;;6.80;41.50;;;;;;5071953;28;20209;-66
2020/12/09 00:34:01;;;;;;;28.00;21.80;;;6.70;42.10;;;;;;5072214;28;20405;-68
2020/12/09 00:36:26;;;;;;;29.23;22.97;;;6.80;41.50;;;;;;5072015;28;20447;-65
2020/12/09 00:38:53;;;;;;;24.97;21.67;;;6.80;42.00;;;;;;5071758;28;20414;-66
2020/12/09 00:41:22;;;;;;;29.97;21.57;;;6.70;42.10;;;;;;5071675;28;20170;-66
2020/12/09 00:43:48;;;;;;;27.23;22.13;;;6.70;41.80;;;;;;5071969;28;20798;-66
2020/12/09 00:46:22;;;;;;;23.60;20.50;;;6.70;41.60;;;;;;5071456;28;20409;-68
2020/12/09 00:48:48;;;;;;;29.10;21.27;;;6.70;41.40;;;;;;5071565;28;20601;-68
2020/12/09 00:51:15;;;;;;;28.87;22.03;;;6.40;42.60;;;;;;5071542;28;20485;-68
2020/12/09 00:53:40;;;;;;;27.20;21.33;;;6.40;43.30;;;;;;5071545;28;20492;-65
2020/12/09 00:56:08;;;;;;;26.37;20.90;;;6.60;43.20;;;;;;5071842;28;21053;-66
2020/12/09 00:58:34;;;;;;;25.37;20.50;;;6.50;42.20;;;;;;5071324;28;20167;-67
2020/12/09 01:01:00;;;;;;;25.67;21.80;;;6.60;42.80;;;;;;5071659;28;20415;-65
2020/12/09 01:03:25;;;;;;;29.50;21.63;;;6.60;42.00;;;;;;5071559;28;20199;-66
2020/12/09 01:05:51;;;;;;;23.70;20.30;;;6.70;42.60;;;;;;5071544;28;20404;-66
2020/12/09 01:08:17;;;;;;;30.50;21.37;;;6.60;42.50;;;;;;5071215;28;20178;-66
2020/12/09 01:10:42;;;;;;;25.77;20.50;;;6.70;43.40;;;;;;5071350;28;20416;-68
2020/12/09 01:13:08;;;;;;;29.07;21.30;;;6.60;42.60;;;;;;5071356;28;20198;-66
2020/12/09 01:15:33;;;;;;;25.73;21.43;;;6.40;42.10;;;;;;5071597;28;20568;-66
2020/12/09 01:17:59;;;;;;;25.80;20.60;;;6.40;42.80;;;;;;5071369;28;20197;-66
2020/12/09 01:20:24;;;;;;;25.17;20.70;;;6.30;42.80;;;;;;5071599;28;20174;-66
2020/12/09 01:22:49;;;;;;;29.40;22.00;;;6.50;42.70;;;;;;5071135;28;20219;-66
2020/12/09 01:25:15;;;;;;;29.67;22.70;;;6.60;42.50;;;;;;5071126;28;20175;-68
2020/12/09 01:27:41;;;;;;;27.03;21.23;;;6.60;42.80;;;;;;5070995;28;20171;-67
2020/12/09 01:30:06;;;;;;;27.30;21.57;;;6.50;43.00;;;;;;5071039;28;20215;-65
2020/12/09 01:32:32;;;;;;;29.73;22.40;;;6.40;43.80;;;;;;5070985;28;20217;-66
2020/12/09 01:34:57;;;;;;;29.63;22.43;;;6.60;43.20;;;;;;5071068;28;20170;-66
2020/12/09 01:37:23;;;;;;;27.83;21.90;;;6.60;42.90;;;;;;5070730;28;20230;-67
2020/12/09 01:39:48;;;;;;;29.77;20.60;;;6.60;42.60;;;;;;5070944;28;20311;-66
2020/12/09 01:42:14;;;;;;;24.77;21.73;;;6.70;42.60;;;;;;5070931;28;20202;-66
2020/12/09 01:44:40;;;;;;;27.63;22.17;;;6.70;42.60;;;;;;5070962;28;20179;-66
2020/12/09 01:47:06;;;;;;;27.97;21.40;;;6.60;42.50;;;;;;5070745;28;20186;-67
2020/12/09 01:49:33;;;;;;;27.07;22.67;;;6.60;43.70;;;;;;5070972;28;20178;-65
2020/12/09 01:52:03;;;;;;;30.90;21.20;;;6.40;42.60;;;;;;5070703;28;20461;-67
2020/12/09 01:54:30;;;;;;;25.83;21.77;;;6.50;43.80;;;;;;5071055;28;20406;-66
2020/12/09 01:57:06;;;;;;;27.43;21.50;;;6.40;44.40;;;;;;5070022;28;20450;-66
2020/12/09 01:59:33;;;;;;;27.80;21.73;;;6.50;45.00;;;;;;5070746;28;20415;-66
2020/12/09 02:01:59;;;;;;;30.63;22.60;;;6.60;43.20;;;;;;5070768;28;20517;-66
2020/12/09 02:04:25;;;;;;;26.23;21.43;;;6.60;42.80;;;;;;5070749;28;20489;-67
2020/12/09 02:06:52;;;;;;;27.57;21.20;;;6.70;42.70;;;;;;5070656;28;20415;-68
2020/12/09 02:09:19;;;;;;;29.13;21.57;;;6.60;42.50;;;;;;5070649;28;20262;-67
2020/12/09 02:11:45;;;;;;;29.33;21.97;;;6.50;43.30;;;;;;5070496;28;20461;-66
2020/12/09 02:14:10;;;;;;;29.30;22.40;;;6.40;43.70;;;;;;5070719;28;20470;-66
2020/12/09 02:16:36;;;;;;;28.40;20.90;;;6.40;43.60;;;;;;5070597;28;20804;-66
2020/12/09 02:19:01;;;;;;;28.50;22.87;;;6.40;43.90;;;;;;5070476;28;20304;-67
2020/12/09 02:21:27;;;;;;;29.70;23.70;;;6.30;43.70;;;;;;5070609;28;20638;-66
2020/12/09 02:23:52;;;;;;;31.37;23.97;;;6.30;44.30;;;;;;5070429;28;20196;-66
2020/12/09 02:26:18;;;;;;;26.67;21.50;;;6.40;43.90;;;;;;5070616;28;20174;-67
2020/12/09 02:28:43;;;;;;;29.20;22.67;;;6.20;43.60;;;;;;5070350;28;20251;-66
2020/12/09 02:31:09;;;;;;;31.17;23.23;;;6.30;44.80;;;;;;5070471;28;20202;-66
2020/12/09 02:33:34;;;;;;;27.73;21.87;;;6.30;44.40;;;;;;5070452;28;20778;-67
2020/12/09 02:36:00;;;;;;;33.70;24.60;;;6.40;44.00;;;;;;5070428;28;20221;-66
2020/12/09 02:38:25;;;;;;;29.57;22.67;;;6.50;43.80;;;;;;5070284;28;20265;-66
2020/12/09 02:40:51;;;;;;;27.77;21.90;;;6.50;43.90;;;;;;5070440;28;20189;-68
2020/12/09 02:43:16;;;;;;;28.50;22.43;;;6.60;43.80;;;;;;5070317;28;20187;-68
2020/12/09 02:45:42;;;;;;;28.70;22.23;;;6.60;43.40;;;;;;5070469;28;20185;-66
2020/12/09 02:48:07;;;;;;;28.17;21.53;;;6.70;42.80;;;;;;5070173;28;20686;-67
2020/12/09 02:50:33;;;;;;;30.23;23.00;;;6.70;42.90;;;;;;5070234;28;20201;-67
2020/12/09 02:52:58;;;;;;;35.47;24.33;;;6.70;43.40;;;;;;5070041;28;20218;-66
2020/12/09 02:55:24;;;;;;;30.20;24.80;;;6.70;43.70;;;;;;5070278;28;20189;-66
2020/12/09 02:57:49;;;;;;;27.83;21.57;;;6.70;42.90;;;;;;5070218;28;20180;-67
2020/12/09 03:00:15;;;;;;;32.63;23.77;;;6.60;43.10;;;;;;5070251;28;20629;-67
2020/12/09 03:02:41;;;;;;;27.80;21.47;;;6.60;43.80;;;;;;5070079;28;20205;-67
2020/12/09 03:05:08;;;;;;;29.27;22.13;;;6.70;43.50;;;;;;5070210;28;20863;-68
2020/12/09 03:07:33;;;;;;;26.63;21.97;;;6.70;43.80;;;;;;5070612;28;20183;-66
2020/12/09 03:09:59;;;;;;;29.40;23.67;;;6.70;42.90;;;;;;5073772;28;20953;-68
2020/12/09 03:12:24;;;;;;;29.00;21.90;;;6.80;43.70;;;;;;5073614;28;20227;-66
2020/12/09 03:14:50;;;;;;;27.47;20.87;;;6.70;43.00;;;;;;5073705;28;20174;-66
2020/12/09 03:17:15;;;;;;;25.60;22.33;;;6.70;43.50;;;;;;5073470;28;20567;-66
2020/12/09 03:19:41;;;;;;;29.07;21.83;;;6.70;42.40;;;;;;5073581;28;20634;-66
2020/12/09 03:22:06;;;;;;;30.37;22.47;;;6.80;42.80;;;;;;5073460;28;20206;-66
2020/12/09 03:24:32;;;;;;;27.77;21.87;;;6.70;43.20;;;;;;5073413;28;20222;-66
2020/12/09 03:26:57;;;;;;;30.47;23.73;;;6.70;42.90;;;;;;5073515;28;20258;-68
2020/12/09 03:29:23;;;;;;;29.40;23.90;;;6.70;42.70;;;;;;5073191;28;20649;-66
2020/12/09 03:31:48;;;;;;;29.30;22.57;;;6.70;42.80;;;;;;5073160;28;20221;-67
2020/12/09 03:34:14;;;;;;;31.50;23.07;;;6.70;42.50;;;;;;5073222;28;20189;-67
2020/12/09 03:36:40;;;;;;;31.00;24.80;;;6.60;43.30;;;;;;5073291;28;20177;-67
2020/12/09 03:39:05;;;;;;;29.00;23.10;;;6.50;43.30;;;;;;5072946;28;20509;-67
2020/12/09 03:41:31;;;;;;;27.67;22.77;;;6.30;44.30;;;;;;5073078;28;20556;-69
2020/12/09 03:43:56;;;;;;;30.47;24.90;;;6.10;44.90;;;;;;5073088;28;20190;-67
2020/12/09 03:46:22;;;;;;;26.83;22.43;;;6.20;45.40;;;;;;5073065;28;20184;-66
2020/12/09 03:48:47;;;;;;;29.27;22.47;;;6.30;45.30;;;;;;5072802;28;20229;-66
2020/12/09 03:51:13;;;;;;;28.50;22.93;;;6.50;44.40;;;;;;5072778;28;20201;-66
2020/12/09 03:53:38;;;;;;;29.43;23.53;;;6.40;44.40;;;;;;5072952;28;20178;-65
2020/12/09 03:56:04;;;;;;;31.13;23.73;;;6.40;44.30;;;;;;5072774;28;20174;-67
2020/12/09 03:58:29;;;;;;;27.93;22.87;;;6.50;44.30;;;;;;5072634;28;20224;-65
2020/12/09 04:00:55;;;;;;;29.97;26.00;;;6.50;45.10;;;;;;5072834;28;20168;-66
2020/12/09 04:03:20;;;;;;;29.07;23.87;;;6.30;45.20;;;;;;5072618;28;20197;-66
2020/12/09 04:05:46;;;;;;;26.90;22.40;;;6.30;45.50;;;;;;5072696;28;20193;-65
2020/12/09 04:08:11;;;;;;;25.03;22.07;;;6.20;46.40;;;;;;5072543;28;20202;-65
2020/12/09 04:10:37;;;;;;;32.50;25.87;;;6.40;47.10;;;;;;5072665;28;20168;-66
2020/12/09 04:13:02;;;;;;;30.87;24.17;;;6.20;46.40;;;;;;5072556;28;20210;-68
2020/12/09 04:15:28;;;;;;;31.53;25.67;;;6.40;47.80;;;;;;5072720;28;20174;-65
2020/12/09 04:17:53;;;;;;;28.60;24.40;;;6.30;47.00;;;;;;5072284;28;20175;-65
2020/12/09 04:20:19;;;;;;;31.83;24.43;;;6.20;47.40;;;;;;5071640;28;20178;-66
2020/12/09 04:22:44;;;;;;;32.30;24.10;;;6.20;47.10;;;;;;5072178;28;20214;-67
2020/12/09 04:25:10;;;;;;;32.37;25.10;;;6.40;45.50;;;;;;5072244;28;20236;-65
2020/12/09 04:27:36;;;;;;;30.73;23.57;;;6.40;46.30;;;;;;5072048;28;20522;-65
2020/12/09 04:30:02;;;;;;;30.53;24.67;;;6.50;45.90;;;;;;5072098;28;20177;-67
2020/12/09 04:32:28;;;;;;;31.60;25.10;;;6.50;45.70;;;;;;5072012;28;20218;-66
2020/12/09 04:34:57;;;;;;;31.80;25.10;;;6.70;45.50;;;;;;5072138;28;20520;-67
2020/12/09 04:37:25;;;;;;;30.53;23.97;;;6.80;44.90;;;;;;5071859;28;20420;-66
2020/12/09 04:39:52;;;;;;;29.33;23.23;;;6.70;45.10;;;;;;5071991;28;20469;-66
2020/12/09 04:42:18;;;;;;;28.57;23.67;;;6.80;45.50;;;;;;5071809;28;20428;-66
2020/12/09 04:44:45;;;;;;;29.67;24.07;;;6.90;45.40;;;;;;5071893;28;20416;-68
2020/12/09 04:47:26;;;;;;;26.97;23.33;;;6.70;45.30;;;;;;5071512;28;20415;-66
2020/12/09 04:50:04;;;;;;;29.73;24.23;;;6.50;45.20;;;;;;5071757;28;20452;-66
2020/12/09 04:52:41;;;;;;;27.37;23.20;;;6.40;46.30;;;;;;5071529;28;20556;-66
2020/12/09 04:55:09;;;;;;;29.23;24.10;;;6.40;46.70;;;;;;5071626;28;20951;-67
2020/12/09 04:57:42;;;;;;;29.40;23.13;;;6.60;46.50;;;;;;5071377;28;20417;-65
2020/12/09 05:00:12;;;;;;;28.07;23.50;;;6.70;45.50;;;;;;5071581;28;20913;-66
2020/12/09 05:02:48;;;;;;;27.40;23.27;;;6.60;46.00;;;;;;5071595;28;20435;-67
2020/12/09 05:05:19;;;;;;;29.47;24.83;;;6.60;44.50;;;;;;5071540;28;20410;-66
2020/12/09 05:07:49;;;;;;;28.40;22.83;;;6.50;45.70;;;;;;5071135;28;20520;-66
2020/12/09 05:10:17;;;;;;;26.77;22.40;;;6.60;46.50;;;;;;5071630;28;20425;-65
2020/12/09 05:12:46;;;;;;;27.13;22.57;;;6.80;46.00;;;;;;5071224;28;20496;-66
2020/12/09 05:15:18;;;;;;;29.63;24.50;;;6.90;45.10;;;;;;5071255;28;20504;-65
2020/12/09 05:18:04;;;;;;;28.30;22.83;;;7.00;45.50;;;;;;5071177;28;20916;-65
2020/12/09 05:20:38;;;;;;;28.40;24.03;;;7.00;44.60;;;;;;5070214;28;20788;-67
2020/12/09 05:23:04;;;;;;;27.57;23.17;;;6.90;45.20;;;;;;5071233;28;20473;-65
2020/12/09 05:25:31;;;;;;;25.10;20.77;;;6.90;44.80;;;;;;5071528;28;20417;-65
2020/12/09 05:27:57;;;;;;;29.47;22.13;;;7.20;44.30;;;;;;5071288;28;20424;-66
2020/12/09 05:33:48;;;;;;;26.50;21.50;;;6.80;44.90;;;;;;5025386;28;20426;-66
2020/12/09 05:36:14;;;;;;;27.40;21.63;;;7.00;44.80;;;;;;5070478;28;20401;-65
2020/12/09 05:38:40;;;;;;;25.33;21.23;;;7.00;43.50;;;;;;5070475;28;20892;-66
2020/12/09 05:41:11;;;;;;;27.40;21.77;;;6.90;44.00;;;;;;5070695;28;20173;-65
2020/12/09 05:43:45;;;;;;;24.40;21.37;;;7.00;44.80;;;;;;5070665;28;20185;-65
2020/12/09 05:46:11;;;;;;;27.00;23.07;;;7.00;44.50;;;;;;5070768;28;20400;-65
2020/12/09 05:48:37;;;;;;;27.20;21.60;;;7.10;43.70;;;;;;5070568;28;20935;-65
2020/12/09 05:51:03;;;;;;;27.10;22.93;;;7.10;44.10;;;;;;5070481;28;20401;-65
2020/12/09 05:53:34;;;;;;;24.50;21.90;;;7.10;44.50;;;;;;5069782;28;20439;-65
2020/12/09 05:56:17;;;;;;;27.17;23.07;;;7.20;43.90;;;;;;5070520;28;20448;-67
2020/12/09 05:58:44;;;;;;;26.60;21.97;;;7.30;43.80;;;;;;5070294;28;20575;-66
2020/12/09 06:01:21;;;;;;;26.63;22.17;;;7.10;44.40;;;;;;5070420;28;20421;-67
2020/12/09 06:03:50;;;;;;;23.67;21.10;;;7.00;44.40;;;;;;5070355;28;20981;-66
2020/12/09 06:06:19;;;;;;;24.23;20.57;;;7.10;44.90;;;;;;5070048;28;20867;-67
2020/12/09 06:08:55;;;;;;;26.63;20.40;;;7.00;43.10;;;;;;5070377;28;20499;-67
2020/12/09 06:11:23;;;;;;;24.47;20.83;;;7.00;43.90;;;;;;5070354;28;20483;-68
2020/12/09 06:13:49;;;;;;;23.97;19.60;;;7.00;44.50;;;;;;5070142;28;20474;-66
2020/12/09 06:16:20;;;;;;;23.93;20.00;;;7.00;45.10;;;;;;5070204;28;20405;-66
2020/12/09 06:18:47;;;;;;;23.90;19.83;;;7.20;44.40;;;;;;5070097;28;20412;-67
2020/12/09 06:21:14;;;;;;;22.33;19.80;;;7.10;43.40;;;;;;5070105;28;20770;-66
2020/12/09 06:23:40;;;;;;;22.17;19.20;;;7.10;43.80;;;;;;5068722;28;20434;-67
2020/12/09 06:26:06;;;;;;;22.27;19.73;;;6.70;44.70;;;;;;5070139;28;20511;-68
2020/12/09 06:28:37;;;;;;;25.30;21.47;;;6.80;44.10;;;;;;5068385;28;20474;-66
2020/12/09 06:31:21;;;;;;;23.60;20.47;;;6.70;45.50;;;;;;5069915;28;20405;-66
2020/12/09 06:33:51;;;;;;;22.63;19.57;;;6.90;44.70;;;;;;5070078;28;20906;-67
2020/12/09 06:36:30;;;;;;;25.00;20.93;;;7.00;44.50;;;;;;5069981;28;20440;-66
2020/12/09 06:39:08;;;;;;;22.67;19.90;;;7.10;44.30;;;;;;5070077;28;20460;-67
2020/12/09 06:41:40;;;;;;;15.40;13.10;;;7.10;44.70;;;;;;5069992;28;20804;-67
2020/12/09 06:44:13;;;;;;;18.63;15.53;;;7.70;64.80;;;;;;5072729;28;20636;-67
2020/12/09 06:46:49;;;;;;;18.40;16.23;;;10.00;57.10;;;;;;5073798;28;20413;-67
2020/12/09 06:49:33;;;;;;;18.80;16.17;;;9.90;51.40;;;;;;5073554;28;20405;-67
2020/12/09 06:52:00;;;;;;;16.90;15.10;;;9.80;45.30;;;;;;5073127;28;20560;-67
2020/12/09 06:54:47;;;;;;;18.60;16.70;;;10.80;46.30;;;;;;5073654;28;20406;-67
2020/12/09 06:57:18;;;;;;;17.53;15.70;;;11.20;43.10;;;;;;5073569;28;20855;-68
2020/12/09 06:59:45;;;;;;;16.40;14.70;;;11.10;37.00;;;;;;5073216;28;20445;-68
2020/12/09 07:02:22;;;;;;;18.63;16.80;;;11.80;37.10;;;;;;5073531;28;20444;-68
2020/12/09 07:04:53;;;;;;;15.83;14.33;;;12.00;34.60;;;;;;5073649;28;20417;-66
2020/12/09 07:07:42;;;;;;;14.60;13.20;;;12.20;37.40;;;;;;5065006;28;20427;-66
2020/12/09 07:10:26;;;;;;;21.50;18.90;;;11.10;36.50;;;;;;5066581;28;20771;-65
2020/12/09 07:13:06;;;;;;;21.03;18.80;;;10.30;33.20;;;;;;5069805;28;20491;-66
2020/12/09 07:15:32;;;;;;;23.00;20.70;;;9.50;35.70;;;;;;5071714;28;20506;-64
2020/12/09 07:17:58;;;;;;;22.00;19.67;;;9.00;37.00;;;;;;5071619;28;20866;-65
2020/12/09 07:20:24;;;;;;;22.93;20.50;;;8.70;39.10;;;;;;5071308;28;20209;-67
2020/12/09 07:22:49;;;;;;;22.13;19.80;;;8.40;39.50;;;;;;5071360;28;20449;-64
2020/12/09 07:25:15;;;;;;;22.17;19.87;;;8.10;40.20;;;;;;5071036;28;20422;-63
2020/12/09 07:27:40;;;;;;;22.93;20.50;;;8.10;41.00;;;;;;5071349;28;20182;-65
2020/12/09 07:30:13;;;;;;;24.80;20.90;;;8.20;41.10;;;;;;5071341;28;20185;-65
2020/12/09 07:32:38;;;;;;;22.47;20.07;;;7.80;40.80;;;;;;5071093;28;20203;-66
2020/12/09 07:35:14;;;;;;;23.87;20.40;;;7.90;41.20;;;;;;5071567;28;20409;-65
2020/12/09 07:37:45;;;;;;;24.13;21.57;;;8.10;41.00;;;;;;5071320;28;20229;-64
2020/12/09 07:40:33;;;;;;;23.87;21.27;;;8.00;41.00;;;;;;5071351;28;20401;-65
2020/12/09 07:43:11;;;;;;;23.80;20.13;;;7.70;42.90;;;;;;5071079;28;20429;-63
2020/12/09 07:45:39;;;;;;;25.43;20.70;;;7.70;42.70;;;;;;5071199;28;20919;-65
2020/12/09 07:48:07;;;;;;;26.50;23.53;;;7.80;42.40;;;;;;5070613;28;20800;-66
2020/12/09 07:50:34;;;;;;;25.60;21.80;;;7.60;42.20;;;;;;5071132;28;20420;-65
2020/12/09 07:53:00;;;;;;;29.10;22.50;;;7.50;42.80;;;;;;5071021;28;20462;-65
2020/12/09 07:55:26;;;;;;;24.47;20.70;;;7.60;43.50;;;;;;5069561;28;20405;-64
2020/12/09 07:58:03;;;;;;;25.67;22.97;;;7.60;43.60;;;;;;5070732;28;20167;-63
2020/12/09 08:00:40;;;;;;;27.30;22.63;;;7.60;42.70;;;;;;5070846;28;20409;-65
2020/12/09 08:03:06;;;;;;;27.40;21.90;;;7.70;43.40;;;;;;5070971;28;20478;-64
2020/12/09 08:05:36;;;;;;;25.30;21.40;;;7.80;41.80;;;;;;5070878;28;20951;-64
2020/12/09 08:08:08;;;;;;;25.97;21.83;;;7.70;41.80;;;;;;5070000;28;20868;-64
2020/12/09 08:10:35;;;;;;;25.63;21.40;;;7.80;42.10;;;;;;5070770;28;20426;-67
2020/12/09 08:13:12;;;;;;;26.13;22.60;;;7.60;43.30;;;;;;5070459;28;20457;-66
2020/12/09 08:15:40;;;;;;;26.10;21.50;;;7.40;43.10;;;;;;5070540;28;20974;-66
2020/12/09 08:18:06;;;;;;;25.30;20.70;;;7.50;42.50;;;;;;5070120;28;20899;-66
2020/12/09 08:20:48;;;;;;;23.80;21.20;;;7.50;42.20;;;;;;5070555;28;20439;-66
2020/12/09 08:23:14;;;;;;;26.27;23.10;;;7.50;43.20;;;;;;5070134;28;20524;-65
2020/12/09 08:25:48;;;;;;;25.70;20.77;;;7.50;43.10;;;;;;5070818;28;20489;-66
2020/12/09 08:28:14;;;;;;;27.83;22.57;;;7.30;42.60;;;;;;5071993;28;20190;-66
2020/12/09 08:30:40;;;;;;;25.27;22.10;;;7.10;43.90;;;;;;5070776;28;20460;-65
2020/12/09 08:33:18;;;;;;;33.73;27.13;;;7.30;44.00;;;;;;5071789;28;20268;-65
2020/12/09 08:36:04;;;;;;;24.60;21.63;;;7.30;43.70;;;;;;5071990;28;20213;-65
2020/12/09 08:38:30;;;;;;;25.47;21.23;;;7.30;44.00;;;;;;5064256;28;20422;-66
2020/12/09 08:41:00;;;;;;;25.87;23.17;;;7.30;43.70;;;;;;5071692;28;20402;-65
2020/12/09 08:43:28;;;;;;;27.10;22.57;;;7.40;43.50;;;;;;5071702;28;20440;-66
2020/12/09 08:45:54;;;;;;;24.37;21.70;;;7.10;43.90;;;;;;5071814;28;20425;-66
2020/12/09 08:48:20;;;;;;;23.40;20.87;;;7.00;43.90;;;;;;5071533;28;20964;-65
2020/12/09 08:50:50;;;;;;;27.27;23.60;;;7.20;44.80;;;;;;5071612;28;20493;-66
2020/12/09 08:53:16;;;;;;;24.90;22.20;;;7.10;44.50;;;;;;5071549;28;20461;-65
2020/12/09 08:55:42;;;;;;;26.97;22.50;;;7.00;44.50;;;;;;5071598;28;20412;-65
2020/12/09 08:58:12;;;;;;;25.67;21.20;;;7.10;43.40;;;;;;5071350;28;20401;-65
2020/12/09 09:00:39;;;;;;;25.83;22.33;;;7.10;43.50;;;;;;5071700;28;20904;-65
2020/12/09 09:03:14;;;;;;;30.50;22.33;;;7.10;44.30;;;;;;5071593;28;20494;-66
2020/12/09 09:05:40;;;;;;;26.40;21.70;;;7.10;44.90;;;;;;5071492;28;20409;-65
2020/12/09 09:08:10;;;;;;;29.10;23.00;;;7.20;44.90;;;;;;5071590;28;20460;-65
2020/12/09 09:10:36;;;;;;;24.47;21.57;;;7.20;44.40;;;;;;5071643;28;20406;-66
2020/12/09 09:13:03;;;;;;;27.37;23.30;;;7.30;43.90;;;;;;5071202;28;20570;-66
2020/12/09 09:15:28;;;;;;;28.37;23.77;;;7.50;44.20;;;;;;5071253;28;20405;-65
2020/12/09 09:17:54;;;;;;;24.73;22.00;;;7.40;44.30;;;;;;5070918;28;20771;-65
2020/12/09 09:20:20;;;;;;;26.70;22.37;;;7.30;43.90;;;;;;5071136;28;20235;-66
2020/12/09 09:22:45;;;;;;;26.13;22.73;;;7.40;44.60;;;;;;5070973;28;20198;-65
2020/12/09 09:25:11;;;;;;;28.63;24.50;;;7.30;44.80;;;;;;5071220;28;20179;-65
2020/12/09 09:27:37;;;;;;;26.80;23.40;;;7.30;44.60;;;;;;5070816;28;20174;-65
2020/12/09 09:30:05;;;;;;;30.30;25.40;;;7.30;44.70;;;;;;5062299;28;20808;-65
2020/12/09 09:32:30;;;;;;;28.50;24.70;;;7.30;44.70;;;;;;5068644;28;20199;-65
2020/12/09 09:34:56;;;;;;;26.60;22.27;;;7.20;43.80;;;;;;5064639;28;20431;-65
2020/12/09 09:37:21;;;;;;;27.80;24.00;;;7.30;45.00;;;;;;5068162;28;20236;-63
2020/12/09 09:39:49;;;;;;;25.40;22.33;;;7.40;44.00;;;;;;5069269;28;20721;-65
2020/12/09 09:42:14;;;;;;;25.20;22.57;;;7.50;43.70;;;;;;5068614;28;20194;-63
2020/12/09 09:44:40;;;;;;;29.77;23.80;;;7.40;44.60;;;;;;5068688;28;20416;-65
2020/12/09 09:47:05;;;;;;;29.73;25.17;;;7.40;45.40;;;;;;5068604;28;20171;-64
2020/12/09 09:49:31;;;;;;;29.70;23.27;;;7.60;44.10;;;;;;5068900;28;20186;-66
2020/12/09 09:51:56;;;;;;;28.10;24.07;;;7.50;44.50;;;;;;5068718;28;20614;-64
2020/12/09 09:54:22;;;;;;;35.03;24.17;;;7.50;44.10;;;;;;5069057;28;20190;-65
2020/12/09 09:56:49;;;;;;;28.63;24.37;;;7.40;44.50;;;;;;5068804;28;20171;-65
2020/12/09 09:59:15;;;;;;;25.63;22.47;;;7.40;44.80;;;;;;5068285;28;20277;-64
2020/12/09 10:01:41;;;;;;;37.37;31.47;;;7.50;45.20;;;;;;5068411;28;20455;-66
2020/12/09 10:04:08;;;;;;;28.47;24.37;;;7.50;44.40;;;;;;5068808;28;20511;-64
2020/12/09 10:06:34;;;;;;;28.23;24.30;;;7.60;44.10;;;;;;5068463;28;20182;-66
2020/12/09 10:09:02;;;;;;;27.03;21.93;;;7.40;44.80;;;;;;5068385;28;20850;-64
2020/12/09 10:11:28;;;;;;;27.33;22.47;;;7.60;45.10;;;;;;5068424;28;20453;-64
2020/12/09 10:13:53;;;;;;;29.30;23.50;;;7.70;43.40;;;;;;5068207;28;20842;-64
2020/12/09 10:16:27;;;;;;;28.63;24.23;;;7.60;43.20;;;;;;5068204;28;20217;-63
2020/12/09 10:18:54;;;;;;;30.83;24.43;;;7.50;44.10;;;;;;5073297;28;20196;-63
2020/12/09 10:21:30;;;;;;;27.23;23.53;;;7.60;44.60;;;;;;5074578;28;20408;-64
2020/12/09 10:23:57;;;;;;;24.77;22.07;;;7.50;44.30;;;;;;5074353;28;20443;-64
2020/12/09 10:26:35;;;;;;;27.73;22.50;;;7.50;44.30;;;;;;5074288;28;20409;-65
2020/12/09 10:29:07;;;;;;;27.93;23.40;;;7.50;44.20;;;;;;5074115;28;20415;-65
2020/12/09 10:31:35;;;;;;;28.00;24.30;;;7.70;44.70;;;;;;5074187;28;20463;-65
2020/12/09 10:34:01;;;;;;;31.50;23.40;;;7.70;44.40;;;;;;5074251;28;20459;-64
2020/12/09 10:36:26;;;;;;;27.07;23.00;;;7.70;44.60;;;;;;5074241;28;20810;-64
2020/12/09 10:38:52;;;;;;;27.50;23.90;;;7.70;44.30;;;;;;5073982;28;20686;-64
2020/12/09 10:41:18;;;;;;;25.23;21.50;;;7.70;44.60;;;;;;5073921;28;20273;-64
2020/12/09 10:43:44;;;;;;;26.37;23.50;;;7.70;44.20;;;;;;5067683;28;20416;-64
2020/12/09 10:46:10;;;;;;;27.13;21.80;;;7.60;44.20;;;;;;5066754;28;20413;-64
2020/12/09 10:48:35;;;;;;;24.17;20.53;;;7.70;43.50;;;;;;5069169;28;20429;-64
2020/12/09 10:51:04;;;;;;;27.87;23.90;;;7.60;43.80;;;;;;5071563;28;20300;-63
2020/12/09 10:53:30;;;;;;;30.67;24.30;;;7.60;44.30;;;;;;5072045;28;20839;-64
2020/12/09 10:55:59;;;;;;;29.07;23.13;;;7.50;44.50;;;;;;5071990;28;20406;-65
2020/12/09 10:58:26;;;;;;;26.03;21.47;;;7.20;45.60;;;;;;5071582;28;20412;-65
2020/12/09 11:00:52;;;;;;;27.30;23.00;;;7.40;45.40;;;;;;5071819;28;20417;-65
2020/12/09 11:03:17;;;;;;;25.23;22.53;;;7.50;44.60;;;;;;5071962;28;20436;-63
2020/12/09 11:05:43;;;;;;;28.43;23.27;;;7.50;44.80;;;;;;5071752;28;20409;-64
2020/12/09 11:08:09;;;;;;;24.57;21.97;;;7.60;44.30;;;;;;5071287;28;20217;-64
2020/12/09 11:10:35;;;;;;;28.23;22.90;;;7.50;44.60;;;;;;5070905;28;20236;-64
2020/12/09 11:13:00;;;;;;;26.00;22.43;;;7.50;44.50;;;;;;5071403;28;21011;-66
2020/12/09 11:15:26;;;;;;;26.07;23.27;;;7.40;44.70;;;;;;5071343;28;20195;-65
2020/12/09 11:17:52;;;;;;;29.50;22.63;;;7.40;44.90;;;;;;5071397;28;20596;-65
2020/12/09 11:20:17;;;;;;;29.87;22.80;;;7.60;45.60;;;;;;5071370;28;20187;-65
2020/12/09 11:22:42;;;;;;;26.87;23.20;;;7.70;44.10;;;;;;5070891;28;20693;-65
2020/12/09 11:25:08;;;;;;;27.80;23.30;;;7.70;44.80;;;;;;5071198;28;20257;-64
2020/12/09 11:27:33;;;;;;;27.77;22.43;;;7.70;44.40;;;;;;5071231;28;20179;-65
2020/12/09 11:29:59;;;;;;;26.87;23.00;;;7.80;44.10;;;;;;5070938;28;20179;-65
2020/12/09 11:32:24;;;;;;;24.87;22.20;;;7.80;44.20;;;;;;5071237;28;20884;-64
2020/12/09 11:34:50;;;;;;;26.33;22.60;;;7.60;43.70;;;;;;5071218;28;20199;-65
2020/12/09 11:37:15;;;;;;;27.17;24.23;;;7.70;44.20;;;;;;5070526;28;20180;-63
2020/12/09 11:39:41;;;;;;;25.87;22.37;;;7.70;44.30;;;;;;5071252;28;20255;-64
2020/12/09 11:42:08;;;;;;;26.40;22.67;;;7.60;44.00;;;;;;5071520;28;20195;-64
2020/12/09 11:44:34;;;;;;;26.23;22.83;;;7.70;44.80;;;;;;5070667;28;20182;-65
2020/12/09 11:47:00;;;;;;;25.57;22.10;;;7.70;43.90;;;;;;5071108;28;20418;-65
2020/12/09 11:49:26;;;;;;;27.80;22.90;;;7.70;43.90;;;;;;5071029;28;20181;-65
2020/12/09 11:51:51;;;;;;;30.13;24.37;;;7.70;42.90;;;;;;5070446;28;20500;-65
2020/12/09 11:54:17;;;;;;;33.77;25.57;;;7.70;43.80;;;;;;5070916;28;20194;-63
2020/12/09 11:56:43;;;;;;;27.37;23.30;;;7.70;43.10;;;;;;5071007;28;20172;-65
2020/12/09 11:59:09;;;;;;;33.57;25.10;;;7.70;43.60;;;;;;5070731;28;20262;-65
2020/12/09 12:01:35;;;;;;;28.73;23.47;;;7.70;43.50;;;;;;5070895;28;20516;-65
2020/12/09 12:04:00;;;;;;;26.40;22.37;;;7.80;43.00;;;;;;5070455;28;20684;-66
2020/12/09 12:06:27;;;;;;;30.20;23.63;;;7.80;43.30;;;;;;5070370;28;20406;-65
2020/12/09 12:08:54;;;;;;;29.00;22.80;;;7.70;43.40;;;;;;5070492;28;20175;-66
2020/12/09 12:11:21;;;;;;;26.57;21.90;;;7.80;43.10;;;;;;5070357;28;20410;-64
2020/12/09 12:13:47;;;;;;;27.30;21.83;;;7.60;43.60;;;;;;5070434;28;20907;-65
2020/12/09 12:16:17;;;;;;;26.73;22.17;;;7.70;43.60;;;;;;5070091;28;20467;-64
2020/12/09 12:18:43;;;;;;;25.47;20.47;;;7.60;43.90;;;;;;5070316;28;20167;-65
2020/12/09 12:21:14;;;;;;;26.67;21.87;;;7.60;43.90;;;;;;5070042;28;20463;-64
2020/12/09 12:23:40;;;;;;;24.43;21.20;;;7.70;44.90;;;;;;5069458;28;20791;-64
2020/12/09 12:26:06;;;;;;;24.30;20.80;;;7.60;43.30;;;;;;5070569;28;20409;-65
2020/12/09 12:28:31;;;;;;;26.23;21.60;;;7.60;43.70;;;;;;5069601;28;20505;-64
2020/12/09 12:30:57;;;;;;;26.53;22.67;;;7.50;43.30;;;;;;5069453;28;20174;-66
2020/12/09 12:33:23;;;;;;;27.70;20.80;;;7.50;44.10;;;;;;5069435;28;20461;-65
2020/12/09 12:35:48;;;;;;;24.60;19.60;;;7.50;44.30;;;;;;5069800;28;20255;-64
2020/12/09 12:38:14;;;;;;;26.07;21.33;;;7.50;43.80;;;;;;5069833;28;20187;-63
2020/12/09 12:40:39;;;;;;;29.67;23.57;;;7.50;43.40;;;;;;5069387;28;20178;-66